Time;durP1;ratioP1;P1;durP2;ratioP2;P2;SDS_P1;SDS_P2;PMS_P1;PMS_P2;Temp;Humidity;BMP_temperature;BMP_pressure;BME280_temperature;BME280_humidity;BME280_pressure;Samples;Min_cycle;Max_cycle;Signal;HPM_P1;HPM_P2
2022/07/23 00:01:47;;;;;;;4.25;1.90;;;20.40;99.90;;;;;;4094980;28;20549;-69
2022/07/23 00:03:48;;;;;;;4.65;2.35;;;20.40;99.90;;;;;;4081881;28;20514;-69
2022/07/23 00:05:49;;;;;;;2.88;2.08;;;20.50;99.90;;;;;;4096119;28;20036;-69
2022/07/23 00:07:49;;;;;;;2.80;2.20;;;20.40;99.90;;;;;;4096416;28;20035;-69
2022/07/23 00:09:50;;;;;;;3.00;2.38;;;20.40;99.90;;;;;;4096284;28;20109;-69
2022/07/23 00:11:50;;;;;;;3.17;2.38;;;20.40;99.90;;;;;;4095824;28;20031;-68
2022/07/23 00:13:51;;;;;;;3.22;2.40;;;20.40;99.90;;;;;;4097542;28;20145;-69
2022/07/23 00:15:52;;;;;;;2.97;2.22;;;20.50;99.90;;;;;;4095671;28;20042;-69
2022/07/23 00:17:53;;;;;;;3.25;2.33;;;20.40;99.90;;;;;;4095995;28;20867;-69
2022/07/23 00:19:53;;;;;;;2.65;2.28;;;20.40;99.90;;;;;;4095825;28;20118;-69
2022/07/23 00:21:54;;;;;;;2.80;2.30;;;20.50;99.90;;;;;;4095701;28;20448;-69
2022/07/23 00:23:54;;;;;;;2.92;2.03;;;20.40;99.90;;;;;;4095854;28;20036;-69
2022/07/23 00:25:55;;;;;;;2.92;2.30;;;20.40;99.90;;;;;;4095878;28;20129;-69
2022/07/23 00:28:00;;;;;;;2.70;2.22;;;20.40;99.90;;;;;;4096291;28;20034;-70
2022/07/23 00:30:01;;;;;;;3.50;2.42;;;20.40;99.90;;;;;;4080736;28;20148;-69
2022/07/23 00:32:02;;;;;;;3.72;2.63;;;20.40;99.90;;;;;;4096121;28;20507;-69
2022/07/23 00:34:02;;;;;;;2.55;2.22;;;20.40;99.90;;;;;;4102297;28;20030;-69
2022/07/23 00:36:03;;;;;;;3.22;2.35;;;20.40;99.90;;;;;;4095841;28;20032;-69
2022/07/23 00:38:04;;;;;;;3.63;2.42;;;20.40;99.90;;;;;;4096009;28;20038;-69
2022/07/23 00:40:06;;;;;;;2.35;2.13;;;20.30;99.90;;;;;;4095537;28;20041;-69
2022/07/23 00:42:06;;;;;;;3.15;2.20;;;20.40;99.90;;;;;;4096103;28;20094;-69
2022/07/23 00:44:21;;;;;;;3.80;2.25;;;20.30;99.90;;;;;;4096165;28;20031;-69
2022/07/23 00:46:22;;;;;;;3.30;2.25;;;20.30;99.90;;;;;;4092751;28;20399;-70
2022/07/23 00:48:23;;;;;;;8.55;2.78;;;20.30;99.90;;;;;;4096304;28;20035;-70
2022/07/23 00:50:24;;;;;;;4.68;2.40;;;20.30;99.90;;;;;;4095242;28;20042;-69
2022/07/23 00:52:25;;;;;;;2.63;2.05;;;20.30;99.90;;;;;;4096093;28;20039;-69
2022/07/23 00:54:26;;;;;;;3.50;2.15;;;20.30;99.90;;;;;;4095200;28;20107;-69
2022/07/23 00:56:27;;;;;;;3.10;1.92;;;20.20;99.90;;;;;;4075719;29;20043;-69
2022/07/23 00:58:28;;;;;;;3.20;2.17;;;20.20;99.90;;;;;;4095425;28;20039;-69
2022/07/23 01:00:29;;;;;;;3.63;2.17;;;20.30;99.90;;;;;;4094892;28;20523;-69
2022/07/23 01:02:29;;;;;;;2.58;2.08;;;20.20;99.90;;;;;;4095822;28;20051;-69
2022/07/23 01:04:30;;;;;;;2.90;2.10;;;20.30;99.90;;;;;;4095827;28;20035;-69
2022/07/23 01:06:34;;;;;;;2.40;2.10;;;20.20;99.90;;;;;;4095401;28;20111;-69
2022/07/23 01:08:36;;;;;;;3.50;2.40;;;20.20;99.90;;;;;;4095615;28;20510;-69
2022/07/23 01:10:36;;;;;;;5.38;2.80;;;20.20;99.90;;;;;;4094552;28;20035;-69
2022/07/23 01:12:37;;;;;;;4.13;2.53;;;20.20;99.90;;;;;;4094957;28;20402;-69
2022/07/23 01:14:38;;;;;;;2.42;2.20;;;20.10;99.90;;;;;;4095915;28;20031;-69
2022/07/23 01:16:39;;;;;;;3.88;2.75;;;20.10;99.90;;;;;;4095739;28;20035;-69
2022/07/23 01:18:40;;;;;;;2.75;2.38;;;20.10;99.90;;;;;;4094764;28;20039;-69
2022/07/23 01:20:41;;;;;;;3.30;2.28;;;20.10;99.90;;;;;;4095313;28;20044;-69
2022/07/23 01:22:42;;;;;;;5.00;2.53;;;20.00;99.90;;;;;;4096218;28;20039;-69
2022/07/23 01:24:42;;;;;;;4.10;2.47;;;20.00;99.90;;;;;;4096310;28;20039;-69
2022/07/23 01:26:45;;;;;;;2.65;2.30;;;20.00;99.90;;;;;;4095321;28;23012;-69
2022/07/23 01:28:45;;;;;;;8.68;2.05;;;20.00;99.90;;;;;;4095757;28;20070;-69
2022/07/23 01:30:48;;;;;;;2.20;1.80;;;20.00;99.90;;;;;;4095809;28;20046;-69
2022/07/23 01:32:48;;;;;;;2.63;2.22;;;20.00;99.90;;;;;;4096475;28;20031;-69
2022/07/23 01:34:49;;;;;;;8.43;2.58;;;20.00;99.90;;;;;;4095911;28;20558;-69
2022/07/23 01:36:50;;;;;;;4.75;2.58;;;20.00;99.90;;;;;;4095537;28;20027;-69
2022/07/23 01:38:51;;;;;;;3.42;2.20;;;19.90;99.90;;;;;;4095502;28;20042;-69
2022/07/23 01:40:51;;;;;;;3.00;2.35;;;19.90;99.90;;;;;;4095852;28;20375;-69
2022/07/23 01:42:52;;;;;;;2.55;2.20;;;19.90;99.90;;;;;;4095942;28;20027;-69
2022/07/23 01:44:52;;;;;;;2.88;2.55;;;19.90;99.90;;;;;;4095829;28;20043;-69
2022/07/23 01:46:53;;;;;;;3.25;2.53;;;19.90;99.90;;;;;;4095561;28;20035;-69
2022/07/23 01:48:54;;;;;;;2.72;2.22;;;19.80;99.90;;;;;;4095307;28;20387;-69
2022/07/23 01:50:54;;;;;;;3.00;2.25;;;19.80;99.90;;;;;;4095443;28;20058;-69
2022/07/23 01:52:55;;;;;;;2.90;2.17;;;19.80;99.90;;;;;;4096221;28;20039;-69
2022/07/23 01:54:55;;;;;;;3.33;2.42;;;19.70;99.90;;;;;;4095901;28;20067;-69
2022/07/23 01:56:56;;;;;;;3.75;2.15;;;19.70;99.90;;;;;;4095705;28;20474;-69
2022/07/23 01:58:57;;;;;;;2.60;2.38;;;19.70;99.90;;;;;;4095033;28;20550;-69
2022/07/23 02:00:58;;;;;;;3.42;2.55;;;19.60;99.90;;;;;;4095336;28;20040;-69
2022/07/23 02:02:58;;;;;;;5.03;2.30;;;19.50;99.90;;;;;;4096017;28;20042;-69
2022/07/23 02:04:59;;;;;;;3.25;2.53;;;19.60;99.90;;;;;;4097460;28;20043;-69
2022/07/23 02:06:59;;;;;;;3.50;2.60;;;19.50;99.90;;;;;;4095324;28;20047;-69
2022/07/23 02:09:00;;;;;;;4.95;2.50;;;19.50;99.90;;;;;;4095438;28;20035;-69
2022/07/23 02:11:00;;;;;;;2.70;2.05;;;19.50;99.90;;;;;;4095682;28;20036;-69
2022/07/23 02:13:01;;;;;;;2.83;2.17;;;19.50;99.90;;;;;;4096047;28;20107;-69
2022/07/23 02:15:02;;;;;;;3.40;2.50;;;19.40;99.90;;;;;;4095493;28;20042;-70
2022/07/23 02:17:02;;;;;;;3.15;2.47;;;19.40;99.90;;;;;;4095436;28;20102;-69
2022/07/23 02:19:04;;;;;;;3.25;2.25;;;19.40;99.90;;;;;;4095482;28;20036;-69
2022/07/23 02:21:05;;;;;;;2.90;2.40;;;19.30;99.90;;;;;;4095448;28;20023;-69
2022/07/23 02:23:06;;;;;;;3.35;2.50;;;19.30;99.90;;;;;;4095661;28;20082;-69
2022/07/23 02:25:08;;;;;;;3.17;2.53;;;19.30;99.90;;;;;;4096501;28;20030;-69
2022/07/23 02:27:09;;;;;;;2.95;2.22;;;19.30;99.90;;;;;;4098747;28;20079;-68
2022/07/23 02:29:09;;;;;;;3.13;2.20;;;19.20;99.90;;;;;;4072392;29;20031;-70
2022/07/23 02:31:10;;;;;;;2.67;1.85;;;19.20;99.90;;;;;;4098139;28;20467;-70
2022/07/23 02:33:11;;;;;;;4.10;2.30;;;19.20;99.90;;;;;;4098619;28;20114;-69
2022/07/23 02:35:11;;;;;;;2.75;2.03;;;19.20;99.90;;;;;;4097891;28;20032;-70
2022/07/23 02:37:12;;;;;;;3.25;1.98;;;19.20;99.90;;;;;;4098754;28;20439;-69
2022/07/23 02:39:12;;;;;;;2.75;2.15;;;19.10;99.90;;;;;;4097607;28;20039;-69
2022/07/23 02:41:13;;;;;;;2.60;2.30;;;19.10;99.90;;;;;;4098068;28;20039;-69
2022/07/23 02:43:13;;;;;;;2.92;2.63;;;19.20;99.90;;;;;;4098633;28;20059;-69
2022/07/23 02:45:14;;;;;;;2.65;2.20;;;19.20;99.90;;;;;;4097875;28;20085;-69
2022/07/23 02:47:15;;;;;;;2.50;2.30;;;19.20;99.90;;;;;;4097512;28;20027;-69
2022/07/23 02:49:15;;;;;;;4.57;2.45;;;19.20;99.90;;;;;;4097869;28;20039;-69
2022/07/23 02:51:16;;;;;;;3.60;2.50;;;19.20;99.90;;;;;;4097979;28;20051;-69
2022/07/23 02:53:16;;;;;;;2.38;2.05;;;19.10;99.90;;;;;;4098291;28;20067;-68
2022/07/23 02:55:17;;;;;;;4.70;2.10;;;19.10;99.90;;;;;;4097395;28;20046;-69
2022/07/23 02:57:17;;;;;;;2.70;2.15;;;19.10;99.90;;;;;;4098237;28;20043;-69
2022/07/23 02:59:18;;;;;;;2.55;2.20;;;19.10;99.90;;;;;;4097695;28;20058;-69
2022/07/23 03:01:19;;;;;;;4.68;2.20;;;19.10;99.90;;;;;;4097537;28;20546;-69
2022/07/23 03:03:19;;;;;;;6.55;2.72;;;19.10;99.90;;;;;;4098324;28;20496;-69
2022/07/23 03:05:20;;;;;;;4.68;2.40;;;19.10;99.90;;;;;;4097807;28;20036;-69
2022/07/23 03:07:21;;;;;;;3.53;2.30;;;19.10;99.90;;;;;;4098001;28;20036;-69
2022/07/23 03:09:21;;;;;;;5.32;2.42;;;19.10;99.90;;;;;;4097454;28;20047;-69
2022/07/23 03:11:22;;;;;;;2.67;1.98;;;19.10;99.90;;;;;;4098426;28;20035;-69
2022/07/23 03:13:22;;;;;;;3.20;2.30;;;19.00;99.90;;;;;;4098144;28;20404;-69
2022/07/23 03:15:23;;;;;;;3.83;2.30;;;19.00;99.90;;;;;;4097468;28;20515;-68
2022/07/23 03:17:24;;;;;;;5.32;2.65;;;19.00;99.90;;;;;;4097809;28;20403;-68
2022/07/23 03:19:24;;;;;;;2.75;2.42;;;19.00;99.90;;;;;;4097346;28;20110;-68
2022/07/23 03:21:25;;;;;;;2.80;2.42;;;18.90;99.90;;;;;;4097365;28;20514;-68
2022/07/23 03:23:25;;;;;;;2.20;2.00;;;18.90;99.90;;;;;;4097935;28;20526;-68
2022/07/23 03:25:26;;;;;;;3.03;2.08;;;18.90;99.90;;;;;;4096777;28;20043;-68
2022/07/23 03:27:29;;;;;;;5.70;2.60;;;18.90;99.90;;;;;;4097398;29;20391;-68
2022/07/23 03:29:32;;;;;;;3.58;2.50;;;18.90;99.90;;;;;;4097057;28;20119;-69
2022/07/23 03:31:33;;;;;;;3.22;2.60;;;18.80;99.90;;;;;;4105094;28;20418;-68
2022/07/23 03:33:33;;;;;;;3.72;2.75;;;18.80;99.90;;;;;;4097538;28;20034;-68
2022/07/23 03:35:34;;;;;;;3.88;2.30;;;18.70;99.90;;;;;;4097305;28;20047;-68
2022/07/23 03:37:35;;;;;;;5.40;2.47;;;18.70;99.90;;;;;;4097864;28;20031;-69
2022/07/23 03:39:35;;;;;;;5.53;2.28;;;18.70;99.90;;;;;;4097090;28;20059;-69
2022/07/23 03:41:36;;;;;;;3.55;2.17;;;18.70;99.90;;;;;;4096801;28;20046;-68
2022/07/23 03:43:36;;;;;;;7.88;3.15;;;18.70;99.90;;;;;;4097658;28;20459;-69
2022/07/23 03:45:37;;;;;;;3.25;2.63;;;18.70;99.90;;;;;;4097236;28;20499;-68
2022/07/23 03:47:38;;;;;;;2.50;2.17;;;18.70;99.90;;;;;;4097564;28;20044;-69
2022/07/23 03:49:39;;;;;;;3.60;2.75;;;18.70;99.90;;;;;;4096344;28;20422;-68
2022/07/23 03:51:40;;;;;;;5.95;2.60;;;18.60;99.90;;;;;;4096300;28;20125;-70
2022/07/23 03:53:40;;;;;;;2.78;2.30;;;18.60;99.90;;;;;;4097439;28;20043;-69
2022/07/23 03:55:41;;;;;;;3.17;2.47;;;18.60;99.90;;;;;;4097042;28;20046;-68
2022/07/23 03:57:42;;;;;;;2.80;2.50;;;18.50;99.90;;;;;;4096958;28;20047;-69
2022/07/23 03:59:42;;;;;;;3.78;2.70;;;18.60;99.90;;;;;;4096687;28;20491;-68
2022/07/23 04:01:43;;;;;;;5.75;3.15;;;18.50;99.90;;;;;;4093696;28;20055;-68
2022/07/23 04:03:43;;;;;;;5.32;2.38;;;18.40;99.90;;;;;;4092932;28;20067;-68
2022/07/23 04:05:44;;;;;;;6.30;2.78;;;18.50;99.90;;;;;;4096230;28;20069;-68
2022/07/23 04:07:45;;;;;;;4.50;2.85;;;18.40;99.90;;;;;;4096950;28;20048;-68
2022/07/23 04:09:45;;;;;;;4.70;2.38;;;18.40;99.90;;;;;;4089867;29;20503;-68
2022/07/23 04:11:46;;;;;;;4.25;2.72;;;18.40;99.90;;;;;;4093894;28;20545;-68
2022/07/23 04:13:46;;;;;;;3.03;2.55;;;18.30;99.90;;;;;;4094188;28;20031;-68
2022/07/23 04:15:47;;;;;;;4.40;3.00;;;18.30;99.90;;;;;;4094820;28;20126;-68
2022/07/23 04:17:48;;;;;;;3.92;2.83;;;18.30;99.90;;;;;;4096653;28;20047;-68
2022/07/23 04:19:48;;;;;;;3.50;3.20;;;18.30;99.90;;;;;;4096430;28;20035;-68
2022/07/23 04:21:49;;;;;;;4.05;2.97;;;18.20;99.90;;;;;;4096062;29;20093;-68
2022/07/23 04:23:49;;;;;;;3.22;2.58;;;18.20;99.90;;;;;;4097104;28;20055;-68
2022/07/23 04:25:50;;;;;;;6.85;3.05;;;18.20;99.90;;;;;;4096614;28;20138;-68
2022/07/23 04:27:51;;;;;;;5.97;3.47;;;18.20;99.90;;;;;;4097032;28;20415;-68
2022/07/23 04:29:51;;;;;;;7.80;3.75;;;18.20;99.90;;;;;;4094840;28;20054;-68
2022/07/23 04:31:52;;;;;;;5.07;3.58;;;18.30;99.90;;;;;;4096532;28;20101;-68
2022/07/23 04:33:52;;;;;;;4.35;3.13;;;18.20;99.90;;;;;;4096966;28;20035;-68
2022/07/23 04:35:53;;;;;;;4.13;3.47;;;18.20;99.90;;;;;;4096281;28;20035;-68
2022/07/23 04:37:53;;;;;;;4.63;3.08;;;18.20;99.90;;;;;;4096781;28;20042;-68
2022/07/23 04:39:54;;;;;;;5.40;2.88;;;18.20;99.90;;;;;;4096376;28;20078;-68
2022/07/23 04:41:54;;;;;;;9.07;3.22;;;18.20;99.90;;;;;;4096057;28;20031;-68
2022/07/23 04:43:55;;;;;;;5.28;3.40;;;18.20;99.90;;;;;;4095610;28;20038;-68
2022/07/23 04:45:56;;;;;;;3.58;3.25;;;18.10;99.90;;;;;;4096171;28;20121;-68
2022/07/23 04:47:57;;;;;;;3.42;2.70;;;18.20;99.90;;;;;;4096286;28;20043;-68
2022/07/23 04:49:57;;;;;;;4.90;3.28;;;18.20;99.90;;;;;;4095210;28;20118;-68
2022/07/23 04:51:58;;;;;;;4.15;3.15;;;18.20;99.90;;;;;;4095882;28;20035;-68
2022/07/23 04:53:58;;;;;;;4.93;3.03;;;18.20;99.90;;;;;;4096124;28;20479;-68
2022/07/23 04:55:59;;;;;;;3.80;2.97;;;18.20;99.90;;;;;;4095868;28;20685;-68
2022/07/23 04:57:59;;;;;;;3.30;2.80;;;18.20;99.90;;;;;;4095794;28;20043;-68
2022/07/23 05:00:00;;;;;;;5.45;3.60;;;18.20;99.90;;;;;;4094138;28;20106;-69
2022/07/23 05:02:01;;;;;;;5.70;3.30;;;18.20;99.90;;;;;;4094340;28;20521;-68
2022/07/23 05:04:01;;;;;;;5.65;3.58;;;18.30;99.90;;;;;;4096099;28;20090;-69
2022/07/23 05:06:03;;;;;;;3.97;3.22;;;18.30;99.90;;;;;;4095316;28;20114;-69
2022/07/23 05:08:04;;;;;;;5.00;3.60;;;18.30;99.90;;;;;;4096014;28;20042;-68
2022/07/23 05:10:05;;;;;;;4.32;3.47;;;18.30;99.90;;;;;;4093947;28;20400;-69
2022/07/23 05:12:05;;;;;;;3.75;3.30;;;18.30;99.90;;;;;;4095389;28;20043;-68
2022/07/23 05:14:06;;;;;;;5.32;3.25;;;18.30;99.90;;;;;;4095315;28;20032;-68
2022/07/23 05:16:07;;;;;;;5.78;3.60;;;18.40;99.90;;;;;;4082250;29;20043;-68
2022/07/23 05:18:07;;;;;;;3.42;3.08;;;18.40;99.90;;;;;;4095490;28;20045;-68
2022/07/23 05:20:08;;;;;;;3.88;3.40;;;18.40;99.90;;;;;;4094462;28;20067;-69
2022/07/23 05:22:09;;;;;;;4.22;3.30;;;18.40;99.90;;;;;;4079387;29;20055;-68
2022/07/23 05:24:10;;;;;;;5.53;3.38;;;18.40;99.90;;;;;;4095729;28;20031;-68
2022/07/23 05:26:10;;;;;;;4.78;3.25;;;18.50;99.90;;;;;;4095382;28;20391;-68
2022/07/23 05:28:11;;;;;;;4.35;3.63;;;18.50;99.90;;;;;;4093565;28;20130;-69
2022/07/23 05:30:12;;;;;;;5.78;3.83;;;18.50;99.90;;;;;;4094083;28;20511;-69
2022/07/23 05:32:12;;;;;;;4.45;3.45;;;18.50;99.90;;;;;;4097163;28;20435;-68
2022/07/23 05:34:13;;;;;;;5.18;3.15;;;18.50;99.90;;;;;;4087357;29;20043;-69
2022/07/23 05:36:13;;;;;;;4.15;3.15;;;18.60;99.90;;;;;;4094750;28;20403;-68
2022/07/23 05:38:14;;;;;;;3.67;3.10;;;18.60;99.90;;;;;;4082887;29;20039;-69
2022/07/23 05:40:16;;;;;;;3.83;3.15;;;18.60;99.90;;;;;;4094203;28;20031;-68
2022/07/23 05:42:16;;;;;;;4.88;3.35;;;18.70;99.90;;;;;;4099440;28;20085;-69
2022/07/23 05:44:17;;;;;;;4.20;3.55;;;18.70;99.90;;;;;;4095072;28;20036;-68
2022/07/23 05:46:17;;;;;;;5.90;3.90;;;18.70;99.90;;;;;;4095438;28;20473;-68
2022/07/23 05:48:18;;;;;;;5.35;3.88;;;18.70;99.90;;;;;;4095474;28;20034;-68
2022/07/23 05:50:19;;;;;;;5.68;3.78;;;18.80;99.90;;;;;;4092973;28;20059;-68
2022/07/23 05:52:19;;;;;;;3.90;3.20;;;18.80;99.90;;;;;;4095490;28;20036;-68
2022/07/23 05:54:20;;;;;;;5.78;4.10;;;18.90;99.90;;;;;;4075634;29;20070;-68
2022/07/23 05:56:21;;;;;;;5.90;4.10;;;18.90;99.90;;;;;;4093915;28;20495;-68
2022/07/23 05:58:21;;;;;;;4.60;3.63;;;18.90;99.90;;;;;;4097030;28;20070;-68
2022/07/23 06:00:22;;;;;;;6.43;4.00;;;19.00;99.90;;;;;;4094162;28;20094;-68
2022/07/23 06:02:22;;;;;;;8.32;3.83;;;19.00;99.90;;;;;;4097628;28;20047;-68
2022/07/23 06:04:23;;;;;;;7.25;3.88;;;19.00;99.90;;;;;;4098743;28;20436;-68
2022/07/23 06:06:23;;;;;;;4.80;3.40;;;19.10;99.90;;;;;;4098038;28;20031;-68
2022/07/23 06:08:24;;;;;;;7.45;3.75;;;19.10;99.90;;;;;;4100542;28;20035;-68
2022/07/23 06:10:25;;;;;;;6.70;4.47;;;19.20;99.90;;;;;;4097083;28;20499;-68
2022/07/23 06:12:26;;;;;;;6.65;4.15;;;19.30;99.90;;;;;;4099426;28;20032;-68
2022/07/23 06:14:26;;;;;;;4.57;3.40;;;19.50;99.90;;;;;;4099444;28;20039;-68
2022/07/23 06:16:27;;;;;;;5.55;3.75;;;19.70;99.90;;;;;;4097958;28;20090;-68
2022/07/23 06:18:27;;;;;;;4.88;3.20;;;20.00;99.90;;;;;;4099287;28;20043;-68
2022/07/23 06:20:28;;;;;;;3.95;3.13;;;20.40;99.90;;;;;;4092335;28;20138;-68
2022/07/23 06:22:29;;;;;;;6.82;3.95;;;20.70;99.90;;;;;;4098751;28;20031;-68
2022/07/23 06:24:29;;;;;;;3.83;3.00;;;21.10;99.90;;;;;;4097957;28;20486;-68
2022/07/23 06:26:30;;;;;;;4.32;3.42;;;21.40;99.90;;;;;;4098188;28;20035;-68
2022/07/23 06:28:30;;;;;;;4.45;3.22;;;21.80;99.90;;;;;;4098843;28;20491;-68
2022/07/23 06:30:31;;;;;;;8.02;3.25;;;22.10;99.90;;;;;;4096520;28;20127;-69
2022/07/23 06:32:31;;;;;;;5.25;2.47;;;22.40;99.90;;;;;;4101648;28;20047;-69
2022/07/23 06:34:32;;;;;;;4.40;2.53;;;22.70;99.90;;;;;;4098787;28;20035;-68
2022/07/23 06:36:33;;;;;;;5.57;3.05;;;23.00;99.90;;;;;;4098131;28;20058;-69
2022/07/23 06:38:34;;;;;;;3.42;2.03;;;23.30;99.90;;;;;;4098374;28;20035;-69
2022/07/23 06:40:35;;;;;;;3.45;2.50;;;23.70;99.90;;;;;;4096308;28;20035;-69
2022/07/23 06:42:39;;;;;;;3.55;2.60;;;23.90;99.90;;;;;;4098260;28;20146;-68
2022/07/23 06:44:39;;;;;;;2.70;2.33;;;24.20;99.90;;;;;;4099140;28;20487;-69
2022/07/23 06:46:40;;;;;;;4.80;2.78;;;24.50;99.90;;;;;;4096745;28;20089;-69
2022/07/23 06:48:40;;;;;;;2.50;2.25;;;24.70;99.90;;;;;;4098031;28;20031;-68
2022/07/23 06:50:41;;;;;;;6.13;2.70;;;24.90;99.90;;;;;;4096978;28;20030;-69
2022/07/23 06:52:42;;;;;;;4.55;2.60;;;25.00;99.90;;;;;;4098192;28;20035;-71
2022/07/23 06:54:42;;;;;;;2.30;2.10;;;25.10;99.90;;;;;;4096014;28;20035;-69
2022/07/23 06:56:43;;;;;;;4.25;2.40;;;25.10;99.90;;;;;;4096168;28;20039;-69
2022/07/23 06:58:44;;;;;;;1.98;1.80;;;25.10;99.90;;;;;;4097070;28;20039;-67
2022/07/23 07:00:44;;;;;;;3.40;2.13;;;25.20;99.90;;;;;;4096513;28;20047;-67
2022/07/23 07:02:45;;;;;;;2.67;1.88;;;25.10;99.90;;;;;;4097814;28;20035;-68
2022/07/23 07:04:45;;;;;;;3.38;2.35;;;25.20;99.90;;;;;;4097924;28;20552;-69
2022/07/23 07:06:46;;;;;;;3.50;2.10;;;25.20;99.90;;;;;;4097837;28;20035;-68
2022/07/23 07:08:47;;;;;;;4.05;2.20;;;25.30;99.90;;;;;;4081373;28;20044;-68
2022/07/23 07:10:47;;;;;;;3.58;2.25;;;25.30;99.90;;;;;;4091318;28;20517;-69
2022/07/23 07:12:48;;;;;;;3.17;2.45;;;25.20;99.90;;;;;;4095697;28;20040;-68
2022/07/23 07:14:49;;;;;;;2.40;1.92;;;25.20;99.90;;;;;;4095222;28;20043;-68
2022/07/23 07:16:49;;;;;;;3.45;2.22;;;25.30;99.90;;;;;;4093205;28;20454;-68
2022/07/23 07:18:50;;;;;;;3.38;2.28;;;25.30;99.90;;;;;;4096964;28;20033;-68
2022/07/23 07:20:51;;;;;;;2.60;1.95;;;25.30;99.90;;;;;;4099452;28;20050;-68
2022/07/23 07:22:51;;;;;;;2.63;1.95;;;25.30;99.90;;;;;;4097710;28;20040;-68
2022/07/23 07:24:52;;;;;;;2.45;1.60;;;25.30;99.90;;;;;;4097062;28;20498;-67
2022/07/23 07:26:52;;;;;;;4.60;2.65;;;25.20;99.90;;;;;;4095597;28;20102;-68
2022/07/23 07:28:53;;;;;;;3.22;2.10;;;25.20;99.90;;;;;;4095619;28;20047;-68
2022/07/23 07:30:54;;;;;;;4.57;2.15;;;25.20;99.90;;;;;;4096805;28;20031;-68
2022/07/23 07:32:54;;;;;;;3.40;2.15;;;25.20;99.90;;;;;;4097319;28;20375;-68
2022/07/23 07:34:55;;;;;;;2.97;1.98;;;25.20;99.90;;;;;;4097808;28;20036;-68
2022/07/23 07:36:55;;;;;;;3.10;1.63;;;25.20;99.90;;;;;;4097070;28;20058;-67
2022/07/23 07:38:56;;;;;;;3.47;2.00;;;25.10;99.90;;;;;;4096822;28;20039;-67
2022/07/23 07:40:56;;;;;;;3.28;1.60;;;25.00;99.90;;;;;;4096208;28;20494;-68
2022/07/23 07:42:57;;;;;;;4.13;1.70;;;24.90;99.70;;;;;;4097625;28;20054;-68
2022/07/23 07:44:58;;;;;;;1.92;1.63;;;24.90;99.90;;;;;;4097641;28;20034;-68
2022/07/23 07:46:58;;;;;;;2.80;1.90;;;24.90;99.90;;;;;;4096560;28;20064;-68
2022/07/23 07:48:59;;;;;;;4.43;2.22;;;24.90;99.90;;;;;;4096662;28;20040;-67
2022/07/23 07:51:00;;;;;;;2.55;1.88;;;24.90;99.90;;;;;;4096641;28;20036;-68
2022/07/23 07:53:00;;;;;;;3.67;1.92;;;24.80;99.90;;;;;;4097588;28;20474;-68
2022/07/23 07:55:03;;;;;;;2.83;1.92;;;24.90;99.90;;;;;;4084551;29;20134;-67
2022/07/23 07:57:04;;;;;;;3.20;1.80;;;24.80;99.90;;;;;;4097168;28;20394;-68
2022/07/23 07:59:04;;;;;;;3.80;2.10;;;24.80;99.90;;;;;;4097198;28;20039;-68
2022/07/23 08:01:05;;;;;;;2.55;1.50;;;24.80;99.90;;;;;;4097678;28;20047;-68
2022/07/23 08:03:06;;;;;;;2.90;1.35;;;24.80;99.90;;;;;;4098080;28;20036;-68
2022/07/23 08:05:07;;;;;;;1.60;1.50;;;24.80;99.90;;;;;;4097585;28;20062;-69
2022/07/23 08:07:07;;;;;;;5.45;2.70;;;24.90;99.90;;;;;;4097641;29;20031;-67
2022/07/23 08:09:08;;;;;;;2.42;1.70;;;24.90;99.90;;;;;;4096531;28;20802;-67
2022/07/23 08:11:08;;;;;;;4.45;2.60;;;24.90;99.90;;;;;;4096688;28;20115;-67
2022/07/23 08:13:14;;;;;;;2.58;1.63;;;24.90;99.90;;;;;;4097781;28;20032;-67
2022/07/23 08:15:16;;;;;;;2.78;1.73;;;24.90;99.90;;;;;;4096767;28;20038;-68
2022/07/23 08:17:17;;;;;;;3.13;1.90;;;24.90;99.90;;;;;;4097591;29;20038;-67
2022/07/23 08:19:18;;;;;;;4.10;1.98;;;24.90;99.90;;;;;;4096798;28;20035;-67
2022/07/23 08:21:18;;;;;;;3.45;1.92;;;24.90;99.90;;;;;;4096848;28;20059;-68
2022/07/23 08:23:19;;;;;;;3.13;2.00;;;24.90;99.90;;;;;;4096894;28;20035;-67
2022/07/23 08:25:26;;;;;;;3.47;1.70;;;24.90;99.90;;;;;;4096288;28;20051;-67
2022/07/23 08:27:26;;;;;;;4.72;1.45;;;24.90;99.30;;;;;;4097767;29;20158;-68
2022/07/23 08:29:27;;;;;;;4.85;1.90;;;24.90;99.70;;;;;;4096963;28;20039;-68
2022/07/23 08:31:27;;;;;;;2.47;1.70;;;24.90;97.50;;;;;;4096616;28;20039;-67
2022/07/23 08:33:28;;;;;;;2.25;1.50;;;24.90;99.90;;;;;;4097033;28;20039;-67
2022/07/23 08:35:30;;;;;;;1.80;1.55;;;24.90;99.90;;;;;;4096794;28;20055;-67
2022/07/23 08:37:30;;;;;;;2.05;1.25;;;25.00;99.30;;;;;;4097390;28;20042;-68
2022/07/23 08:39:31;;;;;;;3.13;1.40;;;25.00;97.70;;;;;;4096090;28;20023;-68
2022/07/23 08:41:33;;;;;;;1.80;1.35;;;25.00;99.60;;;;;;4096878;29;20027;-68
2022/07/23 08:43:35;;;;;;;;;;;25.10;99.40;;;;;;4097830;29;20034;-69
2022/07/23 08:45:39;;;;;;;3.03;1.40;;;25.10;97.60;;;;;;4097191;29;20298;-69
2022/07/23 08:47:40;;;;;;;2.30;1.40;;;25.10;98.70;;;;;;4097198;29;20118;-69
2022/07/23 08:49:41;;;;;;;1.55;1.17;;;25.10;95.70;;;;;;4096707;28;20345;-69
2022/07/23 08:51:41;;;;;;;2.20;1.42;;;25.10;97.40;;;;;;4096079;28;20035;-68
2022/07/23 08:53:43;;;;;;;2.22;1.80;;;25.10;96.50;;;;;;4096706;28;20033;-69
2022/07/23 08:55:46;;;;;;;1.98;1.27;;;24.90;96.80;;;;;;4096413;28;20578;-69
2022/07/23 08:57:48;;;;;;;1.83;1.27;;;25.00;98.00;;;;;;4097178;29;20067;-69
2022/07/23 08:59:49;;;;;;;1.13;1.02;;;25.00;98.90;;;;;;4096528;28;20031;-69
2022/07/23 09:01:50;;;;;;;2.78;1.27;;;25.10;97.00;;;;;;4096529;29;20078;-69
2022/07/23 09:03:50;;;;;;;2.35;1.38;;;25.10;99.20;;;;;;4097409;29;20031;-69
2022/07/23 09:05:52;;;;;;;2.45;1.27;;;25.20;98.80;;;;;;4095474;28;20090;-68
2022/07/23 09:08:14;;;;;;;3.47;1.40;;;25.30;99.10;;;;;;4096602;28;20038;-68
2022/07/23 09:10:14;;;;;;;1.80;1.00;;;25.30;97.90;;;;;;4094681;28;20031;-69
2022/07/23 09:12:15;;;;;;;3.08;1.50;;;25.40;95.70;;;;;;4097149;29;20031;-69
2022/07/23 09:14:16;;;;;;;3.22;1.30;;;25.40;96.20;;;;;;4097384;29;20594;-68
2022/07/23 09:16:29;;;;;;;2.20;1.17;;;25.40;95.80;;;;;;4096578;29;20487;-69
2022/07/23 09:18:30;;;;;;;;;;;25.40;93.80;;;;;;4097245;29;20270;-69
2022/07/23 09:20:30;;;;;;;1.88;0.98;;;25.40;95.50;;;;;;4095900;28;19937;-69
2022/07/23 09:22:31;;;;;;;1.55;0.80;;;25.40;96.00;;;;;;4097204;29;20083;-69
2022/07/23 09:24:32;;;;;;;2.22;1.25;;;25.40;95.90;;;;;;4095804;28;20040;-68
2022/07/23 09:26:34;;;;;;;1.52;1.05;;;25.50;96.30;;;;;;4096407;28;20081;-69
2022/07/23 09:28:53;;;;;;;1.02;0.93;;;25.50;95.50;;;;;;4096585;29;20119;-69
2022/07/23 09:30:53;;;;;;;2.78;1.00;;;25.60;96.40;;;;;;4096182;29;20043;-69
2022/07/23 09:33:05;;;;;;;1.27;1.00;;;25.60;95.80;;;;;;4096753;29;20561;-69
2022/07/23 09:35:06;;;;;;;1.05;0.93;;;25.60;95.10;;;;;;4082374;29;20488;-69
2022/07/23 09:37:13;;;;;;;2.67;1.42;;;25.60;92.80;;;;;;4099916;29;20047;-69
2022/07/23 09:39:15;;;;;;;1.20;0.90;;;25.70;94.00;;;;;;4097122;29;20062;-69
2022/07/23 09:41:16;;;;;;;1.33;0.82;;;25.70;95.90;;;;;;4091932;29;20042;-69
2022/07/23 09:43:28;;;;;;;0.93;0.82;;;25.80;94.50;;;;;;4099889;29;20035;-69
2022/07/23 09:45:28;;;;;;;4.10;1.20;;;25.80;93.00;;;;;;4099670;29;20043;-68
2022/07/23 09:47:31;;;;;;;1.40;0.90;;;25.80;92.70;;;;;;4099906;29;20094;-68
2022/07/23 09:49:32;;;;;;;1.40;1.10;;;25.80;92.40;;;;;;4099426;28;20501;-68
2022/07/23 09:51:47;;;;;;;1.15;0.93;;;25.80;93.20;;;;;;4099785;28;20038;-69
2022/07/23 09:53:48;;;;;;;1.63;1.00;;;25.80;92.70;;;;;;4098748;28;20038;-69
2022/07/23 09:55:49;;;;;;;2.50;1.00;;;25.50;90.80;;;;;;4098076;28;20039;-69
2022/07/23 09:57:50;;;;;;;2.28;1.30;;;25.50;92.10;;;;;;4099893;29;20043;-68
2022/07/23 09:59:51;;;;;;;1.15;0.90;;;25.50;93.30;;;;;;4099267;28;20043;-69
2022/07/23 10:01:56;;;;;;;1.90;0.90;;;25.50;93.90;;;;;;4099261;28;20415;-69
2022/07/23 10:03:57;;;;;;;1.80;1.00;;;25.60;97.10;;;;;;4099703;29;20036;-68
2022/07/23 10:05:58;;;;;;;1.92;0.88;;;25.70;95.30;;;;;;4099274;29;20114;-69
2022/07/23 10:08:02;;;;;;;1.08;0.88;;;25.80;96.10;;;;;;4099632;29;20036;-69
2022/07/23 10:10:04;;;;;;;1.23;0.82;;;25.70;91.10;;;;;;4097137;28;20031;-69
2022/07/23 10:12:32;;;;;;;1.27;1.00;;;25.80;92.70;;;;;;4098848;28;20034;-69
2022/07/23 10:14:33;;;;;;;1.77;0.95;;;25.80;94.80;;;;;;4099906;29;20035;-68
2022/07/23 10:16:34;;;;;;;1.17;0.63;;;25.90;92.20;;;;;;4099088;29;20126;-68
2022/07/23 10:18:35;;;;;;;0.85;0.75;;;25.90;92.80;;;;;;4099058;29;20028;-69
2022/07/23 10:20:35;;;;;;;0.90;0.90;;;26.00;92.40;;;;;;4098705;28;20097;-69
2022/07/23 10:22:42;;;;;;;1.20;0.90;;;26.10;94.20;;;;;;4099843;28;20038;-69
2022/07/23 10:25:10;;;;;;;1.20;1.13;;;26.20;93.20;;;;;;4099104;28;20035;-69
2022/07/23 10:27:10;;;;;;;1.50;1.05;;;26.00;91.50;;;;;;4099178;28;20027;-69
2022/07/23 10:29:18;;;;;;;2.75;0.88;;;26.10;91.00;;;;;;4098573;28;20039;-69
2022/07/23 10:31:40;;;;;;;2.13;1.20;;;26.10;91.40;;;;;;4099163;28;20085;-68
2022/07/23 10:33:45;;;;;;;1.25;1.00;;;26.00;92.20;;;;;;4099265;29;20039;-69